sensor_id;sensor_type;location;lat;lon;timestamp;pressure;altitude;pressure_sealevel;temperature
58307;BMP280;44116;50.884;4.768;2023-04-01T00:02:10;98860.0;;;8.6
58307;BMP280;44116;50.884;4.768;2023-04-01T00:04:10;98860.0;;;8.6
58307;BMP280;44116;50.884;4.768;2023-04-01T00:06:10;98850.0;;;8.6
58307;BMP280;44116;50.884;4.768;2023-04-01T00:08:09;98860.0;;;8.6
58307;BMP280;44116;50.884;4.768;2023-04-01T00:10:10;98850.0;;;8.6
58307;BMP280;44116;50.884;4.768;2023-04-01T00:12:08;98850.0;;;8.6
58307;BMP280;44116;50.884;4.768;2023-04-01T00:14:08;98850.0;;;8.6
58307;BMP280;44116;50.884;4.768;2023-04-01T00:16:08;98850.0;;;8.6
58307;BMP280;44116;50.884;4.768;2023-04-01T00:18:07;98850.0;;;8.6
58307;BMP280;44116;50.884;4.768;2023-04-01T00:20:07;98850.0;;;8.6
58307;BMP280;44116;50.884;4.768;2023-04-01T00:22:07;98860.0;;;8.6
58307;BMP280;44116;50.884;4.768;2023-04-01T00:24:06;98850.0;;;8.6
58307;BMP280;44116;50.884;4.768;2023-04-01T00:26:06;98840.0;;;8.6
58307;BMP280;44116;50.884;4.768;2023-04-01T00:28:06;98850.0;;;8.6
58307;BMP280;44116;50.884;4.768;2023-04-01T00:30:06;98850.0;;;8.6
58307;BMP280;44116;50.884;4.768;2023-04-01T00:32:05;98850.0;;;8.6
58307;BMP280;44116;50.884;4.768;2023-04-01T00:34:05;98850.0;;;8.6
58307;BMP280;44116;50.884;4.768;2023-04-01T00:36:06;98850.0;;;8.6
58307;BMP280;44116;50.884;4.768;2023-04-01T00:42:04;98860.0;;;8.6
58307;BMP280;44116;50.884;4.768;2023-04-01T00:46:03;98860.0;;;8.6
58307;BMP280;44116;50.884;4.768;2023-04-01T00:48:04;98850.0;;;8.6
58307;BMP280;44116;50.884;4.768;2023-04-01T00:52:02;98850.0;;;8.6
58307;BMP280;44116;50.884;4.768;2023-04-01T00:56:02;98860.0;;;8.6
58307;BMP280;44116;50.884;4.768;2023-04-01T00:58:02;98870.0;;;8.6
58307;BMP280;44116;50.884;4.768;2023-04-01T01:00:00;98870.0;;;8.6
58307;BMP280;44116;50.884;4.768;2023-04-01T01:04:00;98870.0;;;8.5
58307;BMP280;44116;50.884;4.768;2023-04-01T01:06:04;98870.0;;;8.5
58307;BMP280;44116;50.884;4.768;2023-04-01T01:08:01;98870.0;;;8.5
58307;BMP280;44116;50.884;4.768;2023-04-01T01:10:00;98860.0;;;8.6
58307;BMP280;44116;50.884;4.768;2023-04-01T01:23:57;98890.0;;;8.6
58307;BMP280;44116;50.884;4.768;2023-04-01T01:25:58;98880.0;;;8.5
58307;BMP280;44116;50.884;4.768;2023-04-01T01:29:59;98880.0;;;8.5
58307;BMP280;44116;50.884;4.768;2023-04-01T01:31:56;98880.0;;;8.5
58307;BMP280;44116;50.884;4.768;2023-04-01T01:33:58;98890.0;;;8.5
58307;BMP280;44116;50.884;4.768;2023-04-01T01:35:55;98890.0;;;8.6
58307;BMP280;44116;50.884;4.768;2023-04-01T01:39:55;98880.0;;;8.6
58307;BMP280;44116;50.884;4.768;2023-04-01T01:41:53;98880.0;;;8.5
58307;BMP280;44116;50.884;4.768;2023-04-01T01:43:53;98880.0;;;8.5
58307;BMP280;44116;50.884;4.768;2023-04-01T01:45:54;98880.0;;;8.5
58307;BMP280;44116;50.884;4.768;2023-04-01T01:47:52;98890.0;;;8.6
58307;BMP280;44116;50.884;4.768;2023-04-01T01:49:52;98890.0;;;8.5
58307;BMP280;44116;50.884;4.768;2023-04-01T01:51:52;98890.0;;;8.5
58307;BMP280;44116;50.884;4.768;2023-04-01T01:53:51;98890.0;;;8.5
58307;BMP280;44116;50.884;4.768;2023-04-01T01:55:51;98900.0;;;8.5
58307;BMP280;44116;50.884;4.768;2023-04-01T01:57:51;98900.0;;;8.5
58307;BMP280;44116;50.884;4.768;2023-04-01T01:59:51;98900.0;;;8.5
58307;BMP280;44116;50.884;4.768;2023-04-01T02:01:51;98900.0;;;8.5
58307;BMP280;44116;50.884;4.768;2023-04-01T02:05:50;98910.0;;;8.5
58307;BMP280;44116;50.884;4.768;2023-04-01T02:07:51;98910.0;;;8.5
58307;BMP280;44116;50.884;4.768;2023-04-01T02:09:49;98910.0;;;8.5
58307;BMP280;44116;50.884;4.768;2023-04-01T02:15:48;98920.0;;;8.5
58307;BMP280;44116;50.884;4.768;2023-04-01T02:17:48;98920.0;;;8.5
58307;BMP280;44116;50.884;4.768;2023-04-01T02:19:49;98920.0;;;8.5
58307;BMP280;44116;50.884;4.768;2023-04-01T02:21:47;98920.0;;;8.5
58307;BMP280;44116;50.884;4.768;2023-04-01T02:23:47;98920.0;;;8.5
58307;BMP280;44116;50.884;4.768;2023-04-01T02:25:46;98930.0;;;8.5
58307;BMP280;44116;50.884;4.768;2023-04-01T02:27:46;98930.0;;;8.5
58307;BMP280;44116;50.884;4.768;2023-04-01T02:29:46;98930.0;;;8.5
58307;BMP280;44116;50.884;4.768;2023-04-01T02:31:46;98940.0;;;8.4
58307;BMP280;44116;50.884;4.768;2023-04-01T02:33:45;98940.0;;;8.5
58307;BMP280;44116;50.884;4.768;2023-04-01T02:35:45;98940.0;;;8.4
58307;BMP280;44116;50.884;4.768;2023-04-01T02:37:45;98950.0;;;8.4
58307;BMP280;44116;50.884;4.768;2023-04-01T02:39:44;98950.0;;;8.4
58307;BMP280;44116;50.884;4.768;2023-04-01T02:43:44;98940.0;;;8.4
58307;BMP280;44116;50.884;4.768;2023-04-01T02:45:43;98950.0;;;8.4
58307;BMP280;44116;50.884;4.768;2023-04-01T02:47:43;98940.0;;;8.4
58307;BMP280;44116;50.884;4.768;2023-04-01T02:49:42;98920.0;;;8.4
58307;BMP280;44116;50.884;4.768;2023-04-01T02:51:42;98900.0;;;8.4
58307;BMP280;44116;50.884;4.768;2023-04-01T02:53:42;98900.0;;;8.4
58307;BMP280;44116;50.884;4.768;2023-04-01T02:55:42;98900.0;;;8.4
58307;BMP280;44116;50.884;4.768;2023-04-01T02:59:41;98910.0;;;8.4
58307;BMP280;44116;50.884;4.768;2023-04-01T03:01:41;98920.0;;;8.3
58307;BMP280;44116;50.884;4.768;2023-04-01T03:03:40;98920.0;;;8.4
58307;BMP280;44116;50.884;4.768;2023-04-01T03:05:40;98920.0;;;8.4
58307;BMP280;44116;50.884;4.768;2023-04-01T03:09:39;98940.0;;;8.4
58307;BMP280;44116;50.884;4.768;2023-04-01T03:11:39;98940.0;;;8.3
58307;BMP280;44116;50.884;4.768;2023-04-01T03:13:39;98940.0;;;8.3
58307;BMP280;44116;50.884;4.768;2023-04-01T03:15:38;98960.0;;;8.3
58307;BMP280;44116;50.884;4.768;2023-04-01T03:17:38;98960.0;;;8.3
58307;BMP280;44116;50.884;4.768;2023-04-01T03:19:38;98950.0;;;8.3
58307;BMP280;44116;50.884;4.768;2023-04-01T03:21:38;98960.0;;;8.3
58307;BMP280;44116;50.884;4.768;2023-04-01T03:23:37;98960.0;;;8.3
58307;BMP280;44116;50.884;4.768;2023-04-01T03:25:37;98960.0;;;8.3
58307;BMP280;44116;50.884;4.768;2023-04-01T03:27:37;98970.0;;;8.4
58307;BMP280;44116;50.884;4.768;2023-04-01T03:29:36;98950.0;;;8.4
58307;BMP280;44116;50.884;4.768;2023-04-01T03:31:36;98950.0;;;8.4
58307;BMP280;44116;50.884;4.768;2023-04-01T03:33:36;98960.0;;;8.4
58307;BMP280;44116;50.884;4.768;2023-04-01T03:35:35;98960.0;;;8.4
58307;BMP280;44116;50.884;4.768;2023-04-01T03:37:35;98970.0;;;8.4
58307;BMP280;44116;50.884;4.768;2023-04-01T03:39:34;98970.0;;;8.4
58307;BMP280;44116;50.884;4.768;2023-04-01T03:41:35;98980.0;;;8.4
58307;BMP280;44116;50.884;4.768;2023-04-01T03:43:34;98980.0;;;8.4
58307;BMP280;44116;50.884;4.768;2023-04-01T03:45:34;98970.0;;;8.4
58307;BMP280;44116;50.884;4.768;2023-04-01T03:47:33;98980.0;;;8.4
58307;BMP280;44116;50.884;4.768;2023-04-01T03:49:33;98990.0;;;8.5
58307;BMP280;44116;50.884;4.768;2023-04-01T03:51:32;99000.0;;;8.4
58307;BMP280;44116;50.884;4.768;2023-04-01T03:53:32;98990.0;;;8.5
58307;BMP280;44116;50.884;4.768;2023-04-01T03:55:32;98990.0;;;8.5
58307;BMP280;44116;50.884;4.768;2023-04-01T03:57:32;99000.0;;;8.5
58307;BMP280;44116;50.884;4.768;2023-04-01T03:59:31;99010.0;;;8.5
58307;BMP280;44116;50.884;4.768;2023-04-01T04:01:31;99010.0;;;8.5
58307;BMP280;44116;50.884;4.768;2023-04-01T04:03:31;99020.0;;;8.5
58307;BMP280;44116;50.884;4.768;2023-04-01T04:05:30;99020.0;;;8.5
58307;BMP280;44116;50.884;4.768;2023-04-01T04:07:30;99020.0;;;8.5
58307;BMP280;44116;50.884;4.768;2023-04-01T04:09:30;99030.0;;;8.5
58307;BMP280;44116;50.884;4.768;2023-04-01T04:11:30;99030.0;;;8.5
58307;BMP280;44116;50.884;4.768;2023-04-01T04:13:29;99030.0;;;8.5
58307;BMP280;44116;50.884;4.768;2023-04-01T04:15:29;99040.0;;;8.4
58307;BMP280;44116;50.884;4.768;2023-04-01T04:17:28;99040.0;;;8.4
58307;BMP280;44116;50.884;4.768;2023-04-01T04:19:31;99040.0;;;8.3
58307;BMP280;44116;50.884;4.768;2023-04-01T04:21:28;99050.0;;;8.3
58307;BMP280;44116;50.884;4.768;2023-04-01T04:23:27;99050.0;;;8.3
58307;BMP280;44116;50.884;4.768;2023-04-01T04:25:27;99050.0;;;8.3
58307;BMP280;44116;50.884;4.768;2023-04-01T04:27:27;99050.0;;;8.4
58307;BMP280;44116;50.884;4.768;2023-04-01T04:29:26;99060.0;;;8.4
58307;BMP280;44116;50.884;4.768;2023-04-01T04:31:26;99060.0;;;8.3
58307;BMP280;44116;50.884;4.768;2023-04-01T04:33:26;99050.0;;;8.3
58307;BMP280;44116;50.884;4.768;2023-04-01T04:35:25;99050.0;;;8.3
58307;BMP280;44116;50.884;4.768;2023-04-01T04:37:25;99060.0;;;8.3
58307;BMP280;44116;50.884;4.768;2023-04-01T04:39:25;99050.0;;;8.3
58307;BMP280;44116;50.884;4.768;2023-04-01T04:41:24;99060.0;;;8.4
58307;BMP280;44116;50.884;4.768;2023-04-01T04:43:24;99060.0;;;8.4
58307;BMP280;44116;50.884;4.768;2023-04-01T04:45:24;99060.0;;;8.3
58307;BMP280;44116;50.884;4.768;2023-04-01T04:47:23;99070.0;;;8.3
58307;BMP280;44116;50.884;4.768;2023-04-01T04:49:23;99060.0;;;8.3
58307;BMP280;44116;50.884;4.768;2023-04-01T04:51:23;99070.0;;;8.3
58307;BMP280;44116;50.884;4.768;2023-04-01T04:53:22;99070.0;;;8.4
58307;BMP280;44116;50.884;4.768;2023-04-01T04:55:22;99080.0;;;8.4
58307;BMP280;44116;50.884;4.768;2023-04-01T04:57:22;99080.0;;;8.3
58307;BMP280;44116;50.884;4.768;2023-04-01T04:59:21;99070.0;;;8.3
58307;BMP280;44116;50.884;4.768;2023-04-01T05:01:21;99070.0;;;8.3
58307;BMP280;44116;50.884;4.768;2023-04-01T05:03:21;99080.0;;;8.3
58307;BMP280;44116;50.884;4.768;2023-04-01T05:05:21;99080.0;;;8.2
58307;BMP280;44116;50.884;4.768;2023-04-01T05:07:20;99080.0;;;8.2
58307;BMP280;44116;50.884;4.768;2023-04-01T05:09:20;99080.0;;;8.2
58307;BMP280;44116;50.884;4.768;2023-04-01T05:11:20;99090.0;;;8.3
58307;BMP280;44116;50.884;4.768;2023-04-01T05:13:19;99090.0;;;8.5
58307;BMP280;44116;50.884;4.768;2023-04-01T05:15:19;99100.0;;;8.3
58307;BMP280;44116;50.884;4.768;2023-04-01T05:17:19;99090.0;;;8.2
58307;BMP280;44116;50.884;4.768;2023-04-01T05:19:18;99080.0;;;8.2
58307;BMP280;44116;50.884;4.768;2023-04-01T05:21:18;99090.0;;;8.3
58307;BMP280;44116;50.884;4.768;2023-04-01T05:23:18;99100.0;;;8.2
58307;BMP280;44116;50.884;4.768;2023-04-01T05:27:17;99100.0;;;8.3
58307;BMP280;44116;50.884;4.768;2023-04-01T05:29:17;99110.0;;;8.3
58307;BMP280;44116;50.884;4.768;2023-04-01T05:31:16;99110.0;;;8.2
58307;BMP280;44116;50.884;4.768;2023-04-01T05:33:16;99120.0;;;8.2
58307;BMP280;44116;50.884;4.768;2023-04-01T05:37:15;99120.0;;;8.3
58307;BMP280;44116;50.884;4.768;2023-04-01T05:41:15;99130.0;;;8.3
58307;BMP280;44116;50.884;4.768;2023-04-01T05:43:14;99130.0;;;8.3
58307;BMP280;44116;50.884;4.768;2023-04-01T05:45:14;99140.0;;;8.3
58307;BMP280;44116;50.884;4.768;2023-04-01T05:47:14;99140.0;;;8.3
58307;BMP280;44116;50.884;4.768;2023-04-01T05:51:13;99150.0;;;8.6
58307;BMP280;44116;50.884;4.768;2023-04-01T05:53:13;99140.0;;;8.4
58307;BMP280;44116;50.884;4.768;2023-04-01T05:55:12;99150.0;;;8.5
58307;BMP280;44116;50.884;4.768;2023-04-01T05:57:12;99150.0;;;8.3
58307;BMP280;44116;50.884;4.768;2023-04-01T05:59:12;99150.0;;;8.2
58307;BMP280;44116;50.884;4.768;2023-04-01T06:01:11;99150.0;;;8.3
58307;BMP280;44116;50.884;4.768;2023-04-01T06:05:13;99160.0;;;8.3
58307;BMP280;44116;50.884;4.768;2023-04-01T06:07:11;99150.0;;;8.4
58307;BMP280;44116;50.884;4.768;2023-04-01T06:09:12;99160.0;;;8.2
58307;BMP280;44116;50.884;4.768;2023-04-01T06:11:13;99160.0;;;8.2
58307;BMP280;44116;50.884;4.768;2023-04-01T06:13:10;99170.0;;;8.2
58307;BMP280;44116;50.884;4.768;2023-04-01T06:15:13;99170.0;;;8.2
58307;BMP280;44116;50.884;4.768;2023-04-01T06:21:12;99170.0;;;8.2
58307;BMP280;44116;50.884;4.768;2023-04-01T06:23:10;99180.0;;;8.2
58307;BMP280;44116;50.884;4.768;2023-04-01T06:25:12;99180.0;;;8.2
58307;BMP280;44116;50.884;4.768;2023-04-01T06:27:09;99190.0;;;8.2
58307;BMP280;44116;50.884;4.768;2023-04-01T06:29:13;99180.0;;;8.2
58307;BMP280;44116;50.884;4.768;2023-04-01T06:31:10;99200.0;;;8.2
58307;BMP280;44116;50.884;4.768;2023-04-01T06:33:16;99190.0;;;8.2
58307;BMP280;44116;50.884;4.768;2023-04-01T06:35:11;99200.0;;;8.2
58307;BMP280;44116;50.884;4.768;2023-04-01T06:39:08;99200.0;;;8.2
58307;BMP280;44116;50.884;4.768;2023-04-01T06:41:08;99200.0;;;8.2
58307;BMP280;44116;50.884;4.768;2023-04-01T06:43:06;99200.0;;;8.2
58307;BMP280;44116;50.884;4.768;2023-04-01T06:45:07;99220.0;;;8.2
58307;BMP280;44116;50.884;4.768;2023-04-01T06:47:17;99210.0;;;8.2
58307;BMP280;44116;50.884;4.768;2023-04-01T06:49:07;99220.0;;;8.2
58307;BMP280;44116;50.884;4.768;2023-04-01T06:51:06;99220.0;;;8.2
58307;BMP280;44116;50.884;4.768;2023-04-01T06:53:04;99220.0;;;8.2
58307;BMP280;44116;50.884;4.768;2023-04-01T06:55:08;99230.0;;;8.2
58307;BMP280;44116;50.884;4.768;2023-04-01T06:57:05;99220.0;;;8.2
58307;BMP280;44116;50.884;4.768;2023-04-01T06:59:02;99230.0;;;8.1
58307;BMP280;44116;50.884;4.768;2023-04-01T07:01:02;99230.0;;;8.2
58307;BMP280;44116;50.884;4.768;2023-04-01T07:03:04;99230.0;;;8.2
58307;BMP280;44116;50.884;4.768;2023-04-01T07:07:01;99240.0;;;8.2
58307;BMP280;44116;50.884;4.768;2023-04-01T07:09:02;99240.0;;;8.1
58307;BMP280;44116;50.884;4.768;2023-04-01T07:11:01;99250.0;;;8.2
58307;BMP280;44116;50.884;4.768;2023-04-01T07:13:00;99250.0;;;8.2
58307;BMP280;44116;50.884;4.768;2023-04-01T07:16:59;99250.0;;;8.1
58307;BMP280;44116;50.884;4.768;2023-04-01T07:19:01;99250.0;;;8.2
58307;BMP280;44116;50.884;4.768;2023-04-01T07:20:58;99260.0;;;8.1
58307;BMP280;44116;50.884;4.768;2023-04-01T07:22:58;99260.0;;;8.1
58307;BMP280;44116;50.884;4.768;2023-04-01T07:24:59;99260.0;;;8.1
58307;BMP280;44116;50.884;4.768;2023-04-01T07:26:57;99270.0;;;8.1
58307;BMP280;44116;50.884;4.768;2023-04-01T07:30:59;99270.0;;;8.2
58307;BMP280;44116;50.884;4.768;2023-04-01T07:32:58;99270.0;;;8.2
58307;BMP280;44116;50.884;4.768;2023-04-01T07:36:57;99280.0;;;8.1
58307;BMP280;44116;50.884;4.768;2023-04-01T07:38:57;99290.0;;;8.1
58307;BMP280;44116;50.884;4.768;2023-04-01T07:40:57;99290.0;;;8.1
58307;BMP280;44116;50.884;4.768;2023-04-01T07:42:58;99290.0;;;8.1
58307;BMP280;44116;50.884;4.768;2023-04-01T07:46:58;99300.0;;;8.2
58307;BMP280;44116;50.884;4.768;2023-04-01T07:48:54;99300.0;;;8.2
58307;BMP280;44116;50.884;4.768;2023-04-01T07:50:55;99290.0;;;8.2
58307;BMP280;44116;50.884;4.768;2023-04-01T07:52:55;99300.0;;;8.2
58307;BMP280;44116;50.884;4.768;2023-04-01T07:56:54;99300.0;;;8.2
58307;BMP280;44116;50.884;4.768;2023-04-01T07:58:54;99300.0;;;8.2
58307;BMP280;44116;50.884;4.768;2023-04-01T08:02:56;99310.0;;;8.3
58307;BMP280;44116;50.884;4.768;2023-04-01T08:06:52;99310.0;;;8.3
58307;BMP280;44116;50.884;4.768;2023-04-01T08:10:51;99320.0;;;8.4
58307;BMP280;44116;50.884;4.768;2023-04-01T08:12:52;99320.0;;;8.4
58307;BMP280;44116;50.884;4.768;2023-04-01T08:16:51;99340.0;;;8.4
58307;BMP280;44116;50.884;4.768;2023-04-01T08:18:51;99320.0;;;8.4
58307;BMP280;44116;50.884;4.768;2023-04-01T08:20:50;99330.0;;;8.4
58307;BMP280;44116;50.884;4.768;2023-04-01T08:22:49;99340.0;;;8.4
58307;BMP280;44116;50.884;4.768;2023-04-01T08:24:48;99340.0;;;8.4
58307;BMP280;44116;50.884;4.768;2023-04-01T08:26:49;99350.0;;;8.3
58307;BMP280;44116;50.884;4.768;2023-04-01T08:28:49;99340.0;;;8.3
58307;BMP280;44116;50.884;4.768;2023-04-01T08:30:47;99350.0;;;8.4
58307;BMP280;44116;50.884;4.768;2023-04-01T08:34:48;99360.0;;;8.4
58307;BMP280;44116;50.884;4.768;2023-04-01T08:36:46;99370.0;;;8.4
58307;BMP280;44116;50.884;4.768;2023-04-01T08:38:46;99370.0;;;8.4
58307;BMP280;44116;50.884;4.768;2023-04-01T08:40:51;99360.0;;;8.4
58307;BMP280;44116;50.884;4.768;2023-04-01T08:42:49;99370.0;;;8.4
58307;BMP280;44116;50.884;4.768;2023-04-01T08:46:54;99380.0;;;8.4
58307;BMP280;44116;50.884;4.768;2023-04-01T08:48:48;99380.0;;;8.4
58307;BMP280;44116;50.884;4.768;2023-04-01T08:50:48;99380.0;;;8.5
58307;BMP280;44116;50.884;4.768;2023-04-01T08:52:44;99380.0;;;8.5
58307;BMP280;44116;50.884;4.768;2023-04-01T09:04:47;99400.0;;;8.4
58307;BMP280;44116;50.884;4.768;2023-04-01T09:06:46;99400.0;;;8.4
58307;BMP280;44116;50.884;4.768;2023-04-01T09:08:45;99400.0;;;8.5
58307;BMP280;44116;50.884;4.768;2023-04-01T09:14:45;99400.0;;;8.6
58307;BMP280;44116;50.884;4.768;2023-04-01T09:16:44;99400.0;;;8.6
58307;BMP280;44116;50.884;4.768;2023-04-01T09:18:46;99410.0;;;8.6
58307;BMP280;44116;50.884;4.768;2023-04-01T09:20:44;99410.0;;;8.6
58307;BMP280;44116;50.884;4.768;2023-04-01T09:24:41;99410.0;;;8.7
58307;BMP280;44116;50.884;4.768;2023-04-01T09:26:43;99410.0;;;8.8
58307;BMP280;44116;50.884;4.768;2023-04-01T09:32:41;99410.0;;;8.8
58307;BMP280;44116;50.884;4.768;2023-04-01T09:34:40;99420.0;;;8.8
58307;BMP280;44116;50.884;4.768;2023-04-01T09:38:39;99410.0;;;8.9
58307;BMP280;44116;50.884;4.768;2023-04-01T09:40:37;99420.0;;;8.9
58307;BMP280;44116;50.884;4.768;2023-04-01T09:42:43;99420.0;;;8.9
58307;BMP280;44116;50.884;4.768;2023-04-01T09:44:36;99420.0;;;8.9
58307;BMP280;44116;50.884;4.768;2023-04-01T09:46:37;99420.0;;;8.9
58307;BMP280;44116;50.884;4.768;2023-04-01T09:48:39;99420.0;;;8.8
58307;BMP280;44116;50.884;4.768;2023-04-01T09:52:35;99430.0;;;8.9
58307;BMP280;44116;50.884;4.768;2023-04-01T10:00:39;99440.0;;;9.0
58307;BMP280;44116;50.884;4.768;2023-04-01T10:04:41;99440.0;;;8.9
58307;BMP280;44116;50.884;4.768;2023-04-01T10:06:43;99440.0;;;8.9
58307;BMP280;44116;50.884;4.768;2023-04-01T10:08:40;99450.0;;;8.9
58307;BMP280;44116;50.884;4.768;2023-04-01T10:10:35;99430.0;;;8.9
58307;BMP280;44116;50.884;4.768;2023-04-01T10:14:34;99440.0;;;9.0
58307;BMP280;44116;50.884;4.768;2023-04-01T10:16:37;99440.0;;;9.0
58307;BMP280;44116;50.884;4.768;2023-04-01T10:20:40;99460.0;;;8.9
58307;BMP280;44116;50.884;4.768;2023-04-01T10:26:32;99510.0;;;9.1
58307;BMP280;44116;50.884;4.768;2023-04-01T10:28:35;99530.0;;;9.1
58307;BMP280;44116;50.884;4.768;2023-04-01T10:30:33;99540.0;;;9.2
58307;BMP280;44116;50.884;4.768;2023-04-01T10:42:33;99550.0;;;9.6
58307;BMP280;44116;50.884;4.768;2023-04-01T10:44:35;99540.0;;;9.7
58307;BMP280;44116;50.884;4.768;2023-04-01T10:52:31;99560.0;;;9.7
58307;BMP280;44116;50.884;4.768;2023-04-01T11:00:28;99560.0;;;9.7
58307;BMP280;44116;50.884;4.768;2023-04-01T11:04:33;99560.0;;;9.8
58307;BMP280;44116;50.884;4.768;2023-04-01T11:12:28;99570.0;;;9.8
58307;BMP280;44116;50.884;4.768;2023-04-01T11:14:30;99570.0;;;9.7
58307;BMP280;44116;50.884;4.768;2023-04-01T11:22:24;99580.0;;;9.7
58307;BMP280;44116;50.884;4.768;2023-04-01T11:24:22;99580.0;;;9.6
58307;BMP280;44116;50.884;4.768;2023-04-01T11:26:22;99580.0;;;9.7
58307;BMP280;44116;50.884;4.768;2023-04-01T11:28:23;99580.0;;;9.6
58307;BMP280;44116;50.884;4.768;2023-04-01T11:30:20;99580.0;;;9.6
58307;BMP280;44116;50.884;4.768;2023-04-01T11:32:20;99580.0;;;9.6
58307;BMP280;44116;50.884;4.768;2023-04-01T11:36:20;99580.0;;;9.6
58307;BMP280;44116;50.884;4.768;2023-04-01T11:38:19;99590.0;;;9.5
58307;BMP280;44116;50.884;4.768;2023-04-01T11:42:19;99590.0;;;9.4
58307;BMP280;44116;50.884;4.768;2023-04-01T11:46:17;99600.0;;;9.2
58307;BMP280;44116;50.884;4.768;2023-04-01T11:48:22;99600.0;;;9.3
58307;BMP280;44116;50.884;4.768;2023-04-01T11:56:21;99600.0;;;9.4
58307;BMP280;44116;50.884;4.768;2023-04-01T11:58:21;99610.0;;;9.4
58307;BMP280;44116;50.884;4.768;2023-04-01T12:00:18;99610.0;;;9.4
58307;BMP280;44116;50.884;4.768;2023-04-01T12:02:16;99610.0;;;9.4
58307;BMP280;44116;50.884;4.768;2023-04-01T12:04:23;99620.0;;;9.5
58307;BMP280;44116;50.884;4.768;2023-04-01T12:08:16;99620.0;;;9.3
58307;BMP280;44116;50.884;4.768;2023-04-01T12:10:16;99610.0;;;9.4
58307;BMP280;44116;50.884;4.768;2023-04-01T12:12:15;99630.0;;;9.7
58307;BMP280;44116;50.884;4.768;2023-04-01T12:14:13;99620.0;;;9.4
58307;BMP280;44116;50.884;4.768;2023-04-01T12:16:18;99630.0;;;9.4
58307;BMP280;44116;50.884;4.768;2023-04-01T12:18:14;99620.0;;;9.6
58307;BMP280;44116;50.884;4.768;2023-04-01T12:20:22;99630.0;;;9.7
58307;BMP280;44116;50.884;4.768;2023-04-01T12:22:17;99630.0;;;9.8
58307;BMP280;44116;50.884;4.768;2023-04-01T12:24:19;99620.0;;;9.8
58307;BMP280;44116;50.884;4.768;2023-04-01T12:28:11;99640.0;;;9.6
58307;BMP280;44116;50.884;4.768;2023-04-01T12:32:14;99630.0;;;9.7
58307;BMP280;44116;50.884;4.768;2023-04-01T12:34:18;99630.0;;;9.7
58307;BMP280;44116;50.884;4.768;2023-04-01T12:36:12;99640.0;;;9.6
58307;BMP280;44116;50.884;4.768;2023-04-01T12:38:13;99630.0;;;9.7
58307;BMP280;44116;50.884;4.768;2023-04-01T12:40:20;99640.0;;;9.7
58307;BMP280;44116;50.884;4.768;2023-04-01T12:42:11;99630.0;;;9.7
58307;BMP280;44116;50.884;4.768;2023-04-01T12:44:11;99630.0;;;9.6
58307;BMP280;44116;50.884;4.768;2023-04-01T12:48:13;99640.0;;;9.5
58307;BMP280;44116;50.884;4.768;2023-04-01T12:52:08;99610.0;;;9.3
58307;BMP280;44116;50.884;4.768;2023-04-01T12:54:11;99610.0;;;9.3
58307;BMP280;44116;50.884;4.768;2023-04-01T12:56:07;99610.0;;;9.3
58307;BMP280;44116;50.884;4.768;2023-04-01T12:58:13;99610.0;;;9.3
58307;BMP280;44116;50.884;4.768;2023-04-01T13:00:11;99610.0;;;9.3
58307;BMP280;44116;50.884;4.768;2023-04-01T13:02:09;99610.0;;;9.3
58307;BMP280;44116;50.884;4.768;2023-04-01T13:04:13;99610.0;;;9.3
58307;BMP280;44116;50.884;4.768;2023-04-01T13:06:13;99610.0;;;9.3
58307;BMP280;44116;50.884;4.768;2023-04-01T13:08:07;99610.0;;;9.3
58307;BMP280;44116;50.884;4.768;2023-04-01T13:10:06;99610.0;;;9.3
58307;BMP280;44116;50.884;4.768;2023-04-01T13:14:07;99610.0;;;9.3
58307;BMP280;44116;50.884;4.768;2023-04-01T13:16:04;99610.0;;;9.3
58307;BMP280;44116;50.884;4.768;2023-04-01T13:18:06;99610.0;;;9.3
58307;BMP280;44116;50.884;4.768;2023-04-01T13:20:03;99610.0;;;9.3
58307;BMP280;44116;50.884;4.768;2023-04-01T13:22:04;99610.0;;;9.3
58307;BMP280;44116;50.884;4.768;2023-04-01T13:24:03;99610.0;;;9.3
58307;BMP280;44116;50.884;4.768;2023-04-01T13:28:04;99610.0;;;9.3
58307;BMP280;44116;50.884;4.768;2023-04-01T13:30:03;99610.0;;;9.3
58307;BMP280;44116;50.884;4.768;2023-04-01T13:32:04;99610.0;;;9.3
58307;BMP280;44116;50.884;4.768;2023-04-01T13:34:05;99610.0;;;9.3
58307;BMP280;44116;50.884;4.768;2023-04-01T13:38:08;99610.0;;;9.3
58307;BMP280;44116;50.884;4.768;2023-04-01T13:40:02;99610.0;;;9.3
58307;BMP280;44116;50.884;4.768;2023-04-01T13:42:05;99610.0;;;9.3
58307;BMP280;44116;50.884;4.768;2023-04-01T13:44:00;99610.0;;;9.3
58307;BMP280;44116;50.884;4.768;2023-04-01T13:46:08;99610.0;;;9.3
58307;BMP280;44116;50.884;4.768;2023-04-01T13:50:02;99610.0;;;9.3
58307;BMP280;44116;50.884;4.768;2023-04-01T13:52:02;99610.0;;;9.3
58307;BMP280;44116;50.884;4.768;2023-04-01T13:56:01;99610.0;;;9.3
58307;BMP280;44116;50.884;4.768;2023-04-01T13:58:04;99610.0;;;9.3
58307;BMP280;44116;50.884;4.768;2023-04-01T13:59:59;99610.0;;;9.3
58307;BMP280;44116;50.884;4.768;2023-04-01T14:01:57;99610.0;;;9.3
58307;BMP280;44116;50.884;4.768;2023-04-01T14:04:02;99610.0;;;9.3
58307;BMP280;44116;50.884;4.768;2023-04-01T14:06:02;99610.0;;;9.3
58307;BMP280;44116;50.884;4.768;2023-04-01T14:10:02;99610.0;;;9.3
58307;BMP280;44116;50.884;4.768;2023-04-01T14:13:56;99610.0;;;9.3
58307;BMP280;44116;50.884;4.768;2023-04-01T14:15:58;99610.0;;;9.3
58307;BMP280;44116;50.884;4.768;2023-04-01T14:17:58;99610.0;;;9.3
58307;BMP280;44116;50.884;4.768;2023-04-01T14:20:02;99610.0;;;9.3
58307;BMP280;44116;50.884;4.768;2023-04-01T14:23:57;99610.0;;;9.3
58307;BMP280;44116;50.884;4.768;2023-04-01T14:25:55;99610.0;;;9.3
58307;BMP280;44116;50.884;4.768;2023-04-01T14:27:55;99610.0;;;9.3
58307;BMP280;44116;50.884;4.768;2023-04-01T14:29:56;99610.0;;;9.3
58307;BMP280;44116;50.884;4.768;2023-04-01T14:35:53;99610.0;;;9.3
58307;BMP280;44116;50.884;4.768;2023-04-01T14:37:57;99610.0;;;9.3
58307;BMP280;44116;50.884;4.768;2023-04-01T14:41:53;99610.0;;;9.3
58307;BMP280;44116;50.884;4.768;2023-04-01T14:43:56;99610.0;;;9.3
58307;BMP280;44116;50.884;4.768;2023-04-01T14:45:53;99610.0;;;9.3
58307;BMP280;44116;50.884;4.768;2023-04-01T14:47:50;99610.0;;;9.3
58307;BMP280;44116;50.884;4.768;2023-04-01T14:49:50;99610.0;;;9.3
58307;BMP280;44116;50.884;4.768;2023-04-01T14:51:49;99610.0;;;9.3
58307;BMP280;44116;50.884;4.768;2023-04-01T14:55:49;99610.0;;;9.3
58307;BMP280;44116;50.884;4.768;2023-04-01T14:57:57;99610.0;;;9.3
58307;BMP280;44116;50.884;4.768;2023-04-01T15:01:50;99610.0;;;9.3
58307;BMP280;44116;50.884;4.768;2023-04-01T15:03:48;99610.0;;;9.3
58307;BMP280;44116;50.884;4.768;2023-04-01T15:05:49;99610.0;;;9.3
58307;BMP280;44116;50.884;4.768;2023-04-01T15:07:51;99610.0;;;9.3
58307;BMP280;44116;50.884;4.768;2023-04-01T15:09:47;99610.0;;;9.3
58307;BMP280;44116;50.884;4.768;2023-04-01T15:11:48;99610.0;;;9.3
58307;BMP280;44116;50.884;4.768;2023-04-01T15:13:52;99610.0;;;9.3
58307;BMP280;44116;50.884;4.768;2023-04-01T15:15:49;99610.0;;;9.3
58307;BMP280;44116;50.884;4.768;2023-04-01T15:17:48;99610.0;;;9.3
58307;BMP280;44116;50.884;4.768;2023-04-01T15:19:50;99610.0;;;9.3
58307;BMP280;44116;50.884;4.768;2023-04-01T15:23:46;99610.0;;;9.3
58307;BMP280;44116;50.884;4.768;2023-04-01T15:25:49;99610.0;;;9.3
58307;BMP280;44116;50.884;4.768;2023-04-01T15:27:44;99610.0;;;9.3